Time;durP1;ratioP1;P1;durP2;ratioP2;P2;SDS_P1;SDS_P2;PMS_P1;PMS_P2;Temp;Humidity;BMP_temperature;BMP_pressure;BME280_temperature;BME280_humidity;BME280_pressure;Samples;Min_cycle;Max_cycle;Signal;HPM_P1;HPM_P2
2022/08/25 00:02:14;;;;;;;0.17;0.17;;;18.60;99.90;;;;;;5054356;28;20406;-81
2022/08/25 00:04:39;;;;;;;;;;;18.60;99.90;;;;;;5023328;28;20037;-77
2022/08/25 00:07:05;;;;;;;0.10;0.10;;;18.70;99.90;;;;;;5050138;28;20003;-80
2022/08/25 00:09:32;;;;;;;;;;;18.60;99.90;;;;;;5054288;28;20037;-79
2022/08/25 00:11:58;;;;;;;0.13;0.13;;;18.60;99.90;;;;;;5016310;28;20290;-83
2022/08/25 00:14:29;;;;;;;0.20;0.20;;;18.60;99.90;;;;;;5049894;28;20044;-83
2022/08/25 00:16:56;;;;;;;0.20;0.20;;;18.60;99.90;;;;;;5038622;28;20406;-80
2022/08/25 00:19:30;;;;;;;0.20;0.20;;;18.60;99.90;;;;;;5054321;28;20468;-82
2022/08/25 00:21:56;;;;;;;0.20;0.20;;;18.60;99.90;;;;;;5048478;28;20072;-80
2022/08/25 00:24:23;;;;;;;;;;;18.60;99.90;;;;;;5050467;28;20045;-79
2022/08/25 00:26:52;;;;;;;0.15;0.15;;;18.60;99.90;;;;;;5036506;28;19986;-74
2022/08/25 00:29:20;;;;;;;0.30;0.30;;;18.60;99.90;;;;;;5054888;28;20041;-80
2022/08/25 00:31:46;;;;;;;0.10;0.10;;;18.60;99.90;;;;;;5049481;28;20048;-84
2022/08/25 00:34:19;;;;;;;0.30;0.30;;;18.60;99.90;;;;;;5050402;28;20549;-75
2022/08/25 00:36:46;;;;;;;0.20;0.20;;;18.60;99.90;;;;;;5043685;28;20486;-77
2022/08/25 00:39:11;;;;;;;0.20;0.20;;;18.60;99.90;;;;;;5031292;28;20074;-78
2022/08/25 00:41:39;;;;;;;;;;;18.60;99.90;;;;;;5058424;28;20124;-74
2022/08/25 00:44:07;;;;;;;0.45;0.45;;;18.60;99.90;;;;;;5056010;28;19924;-81
2022/08/25 00:46:37;;;;;;;0.20;0.20;;;18.60;99.90;;;;;;5030795;28;20048;-80
2022/08/25 00:49:11;;;;;;;0.20;0.20;;;18.60;99.90;;;;;;5050884;28;20053;-84
2022/08/25 00:51:51;;;;;;;0.20;0.20;;;18.60;99.90;;;;;;5052596;28;20506;-80
2022/08/25 00:54:21;;;;;;;0.20;0.20;;;18.60;99.90;;;;;;5036801;28;20482;-77
2022/08/25 00:56:47;;;;;;;0.20;0.20;;;18.60;99.90;;;;;;5052819;28;20045;-82
2022/08/25 00:59:15;;;;;;;0.30;0.30;;;18.60;99.90;;;;;;5048989;28;20049;-82
2022/08/25 01:01:41;;;;;;;0.20;0.20;;;18.60;99.90;;;;;;5033472;28;20045;-81
2022/08/25 01:04:07;;;;;;;;;;;18.60;99.90;;;;;;5032095;28;20409;-83
2022/08/25 01:06:37;;;;;;;0.20;0.20;;;18.60;99.90;;;;;;5049354;28;19956;-78
2022/08/25 01:09:03;;;;;;;0.30;0.30;;;18.60;99.90;;;;;;5047373;28;20066;-81
2022/08/25 01:11:29;;;;;;;0.20;0.20;;;18.70;99.90;;;;;;5033490;28;20051;-77
2022/08/25 01:13:55;;;;;;;;;;;18.70;99.90;;;;;;5071313;28;20127;-80
2022/08/25 01:16:21;;;;;;;0.20;0.20;;;18.70;99.90;;;;;;5047566;28;19917;-77
2022/08/25 01:18:55;;;;;;;0.20;0.20;;;18.70;99.90;;;;;;5048706;28;20441;-81
2022/08/25 01:21:23;;;;;;;0.25;0.20;;;18.70;99.90;;;;;;5052074;28;20048;-76
2022/08/25 01:23:51;;;;;;;0.20;0.20;;;18.70;99.90;;;;;;5041657;28;20055;-83
2022/08/25 01:26:23;;;;;;;0.40;0.40;;;18.70;99.90;;;;;;5046098;28;20048;-82
2022/08/25 01:31:36;;;;;;;0.20;0.20;;;18.70;99.90;;;;;;5057577;28;20103;-81
2022/08/25 01:34:04;;;;;;;0.43;0.43;;;18.60;99.90;;;;;;5044421;28;20045;-78
2022/08/25 01:36:31;;;;;;;1.25;0.93;;;18.70;99.90;;;;;;5048925;28;20482;-82
2022/08/25 01:38:57;;;;;;;0.50;0.50;;;18.70;99.90;;;;;;5049074;28;20098;-78
2022/08/25 01:41:43;;;;;;;0.30;0.30;;;18.70;99.90;;;;;;5028929;28;20045;-77
2022/08/25 01:44:09;;;;;;;0.20;0.20;;;18.70;99.90;;;;;;5050134;28;20392;-80
2022/08/25 01:46:35;;;;;;;;;;;18.70;99.90;;;;;;5048199;28;20037;-82
2022/08/25 01:49:01;;;;;;;0.25;0.25;;;18.60;99.90;;;;;;5032243;28;19923;-79
2022/08/25 01:51:33;;;;;;;0.17;0.17;;;18.60;99.90;;;;;;5047999;28;20037;-82
2022/08/25 01:53:59;;;;;;;0.15;0.15;;;18.60;99.90;;;;;;5045888;28;20155;-82
2022/08/25 01:56:24;;;;;;;;;;;18.60;99.90;;;;;;5048701;28;20124;-79
2022/08/25 01:58:50;;;;;;;0.22;0.22;;;18.60;99.90;;;;;;5049148;28;19917;-79
2022/08/25 02:01:17;;;;;;;;;;;18.60;99.90;;;;;;5030639;28;20040;-81
2022/08/25 02:03:46;;;;;;;0.20;0.20;;;18.50;99.90;;;;;;5047941;28;19924;-80
2022/08/25 02:06:15;;;;;;;0.30;0.30;;;18.50;99.90;;;;;;5059998;28;20434;-80
2022/08/25 02:08:41;;;;;;;0.30;0.30;;;18.50;99.90;;;;;;5042234;28;20044;-79
2022/08/25 02:11:10;;;;;;;0.20;0.20;;;18.50;99.90;;;;;;5040416;28;20037;-77
2022/08/25 02:13:37;;;;;;;0.30;0.30;;;18.50;99.90;;;;;;5049783;28;20071;-76
2022/08/25 02:16:03;;;;;;;;;;;18.50;99.90;;;;;;5051282;28;20371;-77
2022/08/25 02:18:29;;;;;;;0.20;0.20;;;18.50;99.90;;;;;;5051201;28;20282;-78
2022/08/25 02:20:55;;;;;;;0.20;0.20;;;18.60;99.90;;;;;;5052615;28;20037;-75
2022/08/25 02:23:20;;;;;;;;;;;18.60;99.90;;;;;;5049154;28;20551;-77
2022/08/25 02:25:46;;;;;;;0.20;0.20;;;18.60;99.90;;;;;;5065420;28;19917;-76
2022/08/25 02:28:12;;;;;;;;;;;18.60;99.90;;;;;;5050740;28;20699;-76
2022/08/25 02:30:40;;;;;;;0.30;0.30;;;18.60;99.90;;;;;;5052125;28;19921;-77
2022/08/25 02:33:05;;;;;;;0.20;0.20;;;18.60;99.90;;;;;;5033821;28;20124;-80
2022/08/25 02:35:31;;;;;;;;;;;18.60;99.90;;;;;;5055704;28;20200;-78
2022/08/25 02:37:56;;;;;;;0.25;0.25;;;18.60;99.90;;;;;;5052330;28;19921;-78
2022/08/25 02:40:22;;;;;;;;;;;18.50;99.90;;;;;;5050559;28;20397;-75
2022/08/25 02:42:50;;;;;;;0.17;0.17;;;18.50;99.90;;;;;;5047001;28;20765;-80
2022/08/25 02:45:17;;;;;;;0.20;0.20;;;18.50;99.90;;;;;;5049713;28;20053;-79
2022/08/25 02:47:43;;;;;;;0.30;0.30;;;18.50;99.90;;;;;;5035058;28;20048;-79
2022/08/25 02:50:11;;;;;;;0.20;0.20;;;18.50;99.90;;;;;;5065126;28;20094;-78
2022/08/25 02:52:36;;;;;;;0.20;0.20;;;18.50;99.90;;;;;;5050690;28;20052;-76
2022/08/25 02:55:04;;;;;;;;;;;18.60;99.90;;;;;;5053433;28;20045;-79
2022/08/25 02:57:30;;;;;;;;;;;18.50;99.90;;;;;;5050178;28;19947;-76
2022/08/25 02:59:56;;;;;;;0.20;0.20;;;18.50;99.90;;;;;;5052412;28;19917;-77
2022/08/25 03:02:23;;;;;;;0.25;0.25;;;18.50;99.90;;;;;;5049834;28;20064;-77
2022/08/25 03:04:50;;;;;;;0.30;0.30;;;18.50;99.90;;;;;;5055430;28;20553;-79
2022/08/25 03:07:17;;;;;;;0.10;0.10;;;18.50;99.90;;;;;;5052545;28;20070;-79
2022/08/25 03:09:43;;;;;;;0.30;0.30;;;18.40;99.90;;;;;;5071231;28;20045;-82
2022/08/25 03:12:09;;;;;;;;;;;18.40;99.90;;;;;;5042028;28;20379;-75
2022/08/25 03:14:35;;;;;;;0.20;0.20;;;18.40;99.90;;;;;;5039003;28;20266;-80
2022/08/25 03:17:01;;;;;;;;;;;18.40;99.90;;;;;;5051151;28;20496;-78
2022/08/25 03:19:26;;;;;;;0.30;0.30;;;18.30;99.90;;;;;;5052132;28;19917;-78
2022/08/25 03:21:55;;;;;;;;;;;18.40;99.90;;;;;;5031467;28;20076;-77
2022/08/25 03:24:21;;;;;;;0.22;0.22;;;18.30;99.90;;;;;;5046358;28;19967;-83
2022/08/25 03:26:57;;;;;;;0.20;0.20;;;18.30;99.90;;;;;;5037371;28;20059;-80
2022/08/25 03:29:25;;;;;;;0.30;0.30;;;18.30;99.90;;;;;;5034513;28;20102;-80
2022/08/25 03:31:53;;;;;;;0.20;0.20;;;18.30;99.90;;;;;;5049464;28;20040;-77
2022/08/25 03:34:21;;;;;;;0.20;0.20;;;18.20;99.90;;;;;;5051914;28;20048;-80
2022/08/25 03:36:50;;;;;;;0.10;0.10;;;18.20;99.90;;;;;;5065919;28;20475;-79
2022/08/25 03:39:17;;;;;;;0.20;0.20;;;18.20;99.90;;;;;;5050117;28;20056;-77
2022/08/25 03:41:42;;;;;;;0.20;0.20;;;18.20;99.90;;;;;;5049756;28;20063;-81
2022/08/25 03:44:08;;;;;;;;;;;18.10;99.90;;;;;;5051447;28;20049;-76
2022/08/25 03:46:42;;;;;;;0.30;0.30;;;18.10;99.90;;;;;;5031907;28;19986;-77
2022/08/25 03:49:10;;;;;;;0.20;0.20;;;18.10;99.90;;;;;;5048724;28;20051;-77
2022/08/25 03:51:40;;;;;;;0.20;0.20;;;18.00;99.90;;;;;;5050244;28;20080;-77
2022/08/25 03:54:09;;;;;;;0.28;0.28;;;18.00;99.90;;;;;;5051138;28;20045;-79
2022/08/25 03:56:35;;;;;;;0.20;0.20;;;18.00;99.90;;;;;;5032178;28;20048;-78
2022/08/25 03:59:01;;;;;;;0.50;0.50;;;18.00;99.90;;;;;;5049213;28;20509;-77
2022/08/25 04:01:27;;;;;;;;;;;17.90;99.90;;;;;;5046484;28;20045;-76
2022/08/25 04:03:52;;;;;;;0.20;0.20;;;17.90;99.90;;;;;;5054387;28;20011;-76
2022/08/25 04:06:24;;;;;;;0.17;0.17;;;17.90;99.90;;;;;;5065150;28;20186;-77
2022/08/25 04:08:51;;;;;;;;;;;17.90;99.90;;;;;;5069035;28;20511;-78
2022/08/25 04:11:22;;;;;;;0.20;0.20;;;17.90;99.90;;;;;;5050113;28;20313;-79
2022/08/25 04:13:48;;;;;;;0.15;0.15;;;17.90;99.90;;;;;;5052722;28;20053;-76
2022/08/25 04:16:20;;;;;;;0.30;0.30;;;17.90;99.90;;;;;;5080398;28;20045;-77
2022/08/25 04:18:47;;;;;;;0.22;0.22;;;17.90;99.90;;;;;;5048530;28;20116;-80
2022/08/25 04:21:18;;;;;;;0.17;0.17;;;17.90;99.90;;;;;;5050359;28;20052;-80
2022/08/25 04:23:47;;;;;;;0.30;0.30;;;17.90;99.90;;;;;;5058647;28;20070;-81
2022/08/25 04:26:19;;;;;;;0.20;0.20;;;17.90;99.90;;;;;;5052925;28;20050;-79
2022/08/25 04:28:45;;;;;;;0.25;0.25;;;17.90;99.90;;;;;;5053090;28;20041;-77
2022/08/25 04:31:13;;;;;;;0.28;0.28;;;17.80;99.90;;;;;;5062884;28;20132;-75
2022/08/25 04:33:40;;;;;;;0.30;0.30;;;17.80;99.90;;;;;;5049152;28;20045;-80
2022/08/25 04:36:07;;;;;;;0.30;0.30;;;17.80;99.90;;;;;;5061665;28;20119;-75
2022/08/25 04:38:34;;;;;;;0.30;0.30;;;17.70;99.90;;;;;;5047724;28;20045;-78
2022/08/25 04:41:03;;;;;;;0.13;0.13;;;17.70;99.90;;;;;;5053808;28;20048;-77
2022/08/25 04:43:30;;;;;;;0.15;0.15;;;17.70;99.90;;;;;;5057240;28;20052;-77
2022/08/25 04:45:57;;;;;;;0.20;0.20;;;17.70;99.90;;;;;;5056700;28;20122;-76
2022/08/25 04:48:24;;;;;;;0.43;0.43;;;17.70;99.90;;;;;;5056240;28;20429;-79
2022/08/25 04:50:50;;;;;;;0.20;0.20;;;17.70;99.90;;;;;;5054174;28;20044;-77
2022/08/25 04:53:16;;;;;;;0.17;0.17;;;17.70;99.90;;;;;;5048139;28;20049;-77
2022/08/25 04:55:46;;;;;;;0.40;0.40;;;17.70;99.90;;;;;;5014273;28;20120;-78
2022/08/25 04:58:14;;;;;;;0.20;0.20;;;17.70;99.90;;;;;;5049448;28;20433;-76
2022/08/25 05:00:40;;;;;;;0.10;0.10;;;17.70;99.90;;;;;;5046837;28;20044;-78
2022/08/25 05:03:07;;;;;;;0.20;0.20;;;17.70;99.90;;;;;;5061997;28;20127;-79
2022/08/25 05:05:35;;;;;;;4.05;0.65;;;17.70;99.90;;;;;;5039181;28;20090;-79
2022/08/25 05:08:01;;;;;;;0.20;0.20;;;17.70;99.90;;;;;;5057420;28;20047;-73
2022/08/25 05:10:27;;;;;;;;;;;17.70;99.90;;;;;;5037553;28;20148;-78
2022/08/25 05:12:53;;;;;;;0.25;0.25;;;17.70;99.90;;;;;;5048467;28;20023;-78
2022/08/25 05:15:51;;;;;;;;;;;17.70;99.90;;;;;;5071233;28;20074;-76
2022/08/25 05:18:18;;;;;;;0.20;0.20;;;17.80;99.90;;;;;;5051040;28;20411;-76
2022/08/25 05:20:43;;;;;;;0.20;0.20;;;17.80;99.90;;;;;;5048384;28;20041;-79
2022/08/25 05:23:10;;;;;;;;;;;17.80;99.90;;;;;;5046879;28;20039;-80
2022/08/25 05:25:35;;;;;;;0.20;0.20;;;17.80;99.90;;;;;;5049000;28;19962;-79
2022/08/25 05:28:01;;;;;;;;;;;17.90;99.90;;;;;;5013631;28;20041;-80
2022/08/25 05:30:27;;;;;;;0.20;0.20;;;17.90;99.90;;;;;;5044056;28;20387;-77
2022/08/25 05:32:52;;;;;;;;;;;18.00;99.90;;;;;;5031824;28;20052;-76
2022/08/25 05:35:19;;;;;;;0.20;0.20;;;18.10;99.90;;;;;;5051800;28;19920;-79
2022/08/25 05:37:45;;;;;;;0.30;0.30;;;18.10;99.90;;;;;;5043851;28;20040;-78
2022/08/25 05:40:12;;;;;;;0.20;0.20;;;18.20;99.90;;;;;;5047773;28;20080;-80
2022/08/25 05:42:38;;;;;;;0.17;0.17;;;18.30;99.90;;;;;;5047881;28;20037;-85
2022/08/25 05:45:04;;;;;;;;;;;18.30;99.90;;;;;;5066600;28;20079;-83
2022/08/25 05:47:30;;;;;;;0.10;0.10;;;18.40;99.90;;;;;;5053616;28;19917;-82
2022/08/25 05:49:56;;;;;;;;;;;18.50;99.90;;;;;;5038545;28;20235;-79
2022/08/25 05:52:21;;;;;;;0.20;0.20;;;18.50;99.90;;;;;;5054483;28;19928;-78
2022/08/25 05:54:47;;;;;;;;;;;18.60;99.90;;;;;;5042673;28;20032;-77
2022/08/25 05:57:13;;;;;;;0.30;0.30;;;18.70;99.90;;;;;;5067102;28;19916;-77
2022/08/25 05:59:39;;;;;;;;;;;18.70;99.90;;;;;;5053672;28;20057;-81
2022/08/25 06:04:48;;;;;;;0.15;0.15;;;18.90;99.90;;;;;;5050762;28;20118;-77
2022/08/25 06:07:14;;;;;;;;;;;19.00;99.90;;;;;;5036980;28;20048;-76
2022/08/25 06:09:41;;;;;;;0.20;0.20;;;19.10;99.90;;;;;;5052806;28;19927;-74
2022/08/25 06:12:07;;;;;;;0.70;0.30;;;19.20;99.90;;;;;;5037886;28;20037;-74
2022/08/25 06:14:34;;;;;;;0.20;0.20;;;19.30;99.90;;;;;;5049922;28;20065;-74
2022/08/25 06:17:00;;;;;;;0.10;0.10;;;19.50;99.90;;;;;;5052116;28;20123;-74
2022/08/25 06:19:26;;;;;;;0.40;0.40;;;19.60;99.90;;;;;;5051869;28;20048;-75
2022/08/25 06:21:54;;;;;;;0.40;0.40;;;19.70;99.90;;;;;;5053840;28;20083;-75
2022/08/25 06:24:20;;;;;;;0.20;0.20;;;19.90;99.90;;;;;;5045487;28;20094;-74
2022/08/25 06:26:45;;;;;;;0.20;0.20;;;20.10;99.90;;;;;;5051017;28;20044;-74
2022/08/25 06:29:12;;;;;;;;;;;20.10;99.90;;;;;;5056446;28;20041;-74
2022/08/25 06:31:38;;;;;;;0.25;0.25;;;20.30;99.90;;;;;;5042160;28;19947;-75
2022/08/25 06:34:07;;;;;;;0.17;0.17;;;20.40;99.90;;;;;;5054332;28;20052;-74
2022/08/25 06:36:33;;;;;;;0.30;0.30;;;20.50;99.90;;;;;;5043120;28;20033;-73
2022/08/25 06:38:59;;;;;;;;;;;20.60;99.90;;;;;;5050161;28;20052;-73
2022/08/25 06:41:25;;;;;;;0.28;0.28;;;20.70;99.90;;;;;;5052208;28;19927;-76
2022/08/25 06:43:50;;;;;;;;;;;20.80;99.90;;;;;;5052046;28;20037;-76
2022/08/25 06:46:22;;;;;;;0.47;0.40;;;20.90;99.90;;;;;;5053153;28;19924;-74
2022/08/25 06:48:49;;;;;;;0.30;0.30;;;21.00;99.90;;;;;;5033024;28;20076;-75
2022/08/25 06:51:17;;;;;;;0.10;0.10;;;21.10;99.90;;;;;;5065620;28;20045;-76
2022/08/25 06:53:44;;;;;;;0.20;0.20;;;21.20;99.90;;;;;;5047030;28;20037;-76
2022/08/25 06:56:10;;;;;;;0.30;0.30;;;21.40;99.90;;;;;;5062650;28;20044;-75
2022/08/25 06:58:36;;;;;;;0.30;0.30;;;21.50;99.90;;;;;;5031032;28;20103;-76
2022/08/25 07:01:22;;;;;;;0.40;0.40;;;21.60;99.90;;;;;;5047582;28;20045;-76
2022/08/25 07:03:56;;;;;;;0.35;0.35;;;21.70;99.90;;;;;;5050041;28;20045;-75
2022/08/25 07:06:23;;;;;;;0.25;0.25;;;21.80;99.90;;;;;;5033701;28;20508;-76
2022/08/25 07:08:48;;;;;;;0.63;0.63;;;22.00;99.90;;;;;;5031912;28;20398;-76
2022/08/25 07:11:15;;;;;;;0.77;0.77;;;22.00;99.90;;;;;;5045886;28;20044;-76
2022/08/25 07:13:41;;;;;;;0.60;0.47;;;22.10;99.90;;;;;;5046341;28;20086;-75
2022/08/25 07:16:07;;;;;;;0.28;0.28;;;22.30;99.90;;;;;;5034195;28;20107;-76
2022/08/25 07:18:34;;;;;;;0.20;0.20;;;22.30;99.90;;;;;;5046590;28;20128;-76
2022/08/25 07:21:00;;;;;;;0.30;0.30;;;22.40;99.90;;;;;;5048231;28;20067;-75
2022/08/25 07:23:27;;;;;;;0.30;0.30;;;22.50;99.90;;;;;;5033684;28;20048;-76
2022/08/25 07:25:53;;;;;;;0.20;0.20;;;22.60;99.90;;;;;;5053882;28;20080;-75
2022/08/25 07:28:21;;;;;;;0.22;0.22;;;22.70;99.90;;;;;;5048289;28;20045;-76
2022/08/25 07:30:48;;;;;;;0.38;0.38;;;22.70;99.90;;;;;;5045085;28;20422;-75
2022/08/25 07:33:13;;;;;;;0.50;0.45;;;22.80;99.90;;;;;;5050181;28;20048;-76
2022/08/25 07:35:39;;;;;;;0.30;0.30;;;22.90;99.90;;;;;;5047918;28;20483;-75
2022/08/25 07:38:06;;;;;;;0.55;0.30;;;23.10;99.90;;;;;;5029501;28;20084;-75
2022/08/25 07:40:35;;;;;;;0.43;0.43;;;23.10;99.90;;;;;;5043167;28;20053;-75
2022/08/25 07:43:04;;;;;;;0.22;0.22;;;23.20;99.90;;;;;;5022221;28;20038;-76
2022/08/25 07:45:32;;;;;;;0.70;0.43;;;23.20;99.90;;;;;;5042291;28;20348;-76
2022/08/25 07:48:01;;;;;;;0.43;0.43;;;23.30;99.90;;;;;;5036262;28;20034;-76
2022/08/25 07:50:28;;;;;;;0.65;0.60;;;23.40;99.90;;;;;;5037285;28;20493;-76
2022/08/25 07:52:55;;;;;;;0.30;0.30;;;23.50;99.90;;;;;;5034064;28;20573;-76
2022/08/25 07:55:25;;;;;;;0.57;0.40;;;23.60;99.90;;;;;;5036501;28;20041;-76
2022/08/25 07:57:53;;;;;;;2.90;0.57;;;23.70;99.90;;;;;;5049429;28;20552;-76
2022/08/25 08:00:19;;;;;;;0.70;0.63;;;23.70;99.90;;;;;;5050769;28;20358;-75
2022/08/25 08:02:48;;;;;;;0.75;0.75;;;23.80;99.90;;;;;;5049151;28;20068;-77
2022/08/25 08:05:14;;;;;;;0.40;0.40;;;23.90;99.90;;;;;;5046821;28;20069;-76
2022/08/25 08:07:40;;;;;;;0.35;0.35;;;24.00;99.90;;;;;;5049032;28;20493;-77
2022/08/25 08:10:08;;;;;;;0.10;0.10;;;24.00;99.90;;;;;;5040482;28;20394;-76
2022/08/25 08:12:35;;;;;;;0.22;0.22;;;24.10;99.90;;;;;;5053008;28;20041;-76
2022/08/25 08:15:01;;;;;;;0.30;0.30;;;24.10;99.90;;;;;;5048079;28;20041;-75
2022/08/25 08:17:27;;;;;;;0.35;0.35;;;24.20;99.90;;;;;;5050776;28;20569;-78
2022/08/25 08:19:53;;;;;;;0.10;0.10;;;24.30;99.90;;;;;;5047210;28;20364;-77
2022/08/25 08:22:19;;;;;;;0.38;0.38;;;24.40;99.90;;;;;;5051066;28;20059;-78
2022/08/25 08:24:49;;;;;;;0.15;0.15;;;24.50;99.90;;;;;;5050471;28;20041;-78
2022/08/25 08:27:16;;;;;;;0.32;0.32;;;24.60;99.90;;;;;;5048525;28;20037;-79
2022/08/25 08:29:42;;;;;;;0.47;0.45;;;24.70;99.90;;;;;;5051906;28;20045;-78
2022/08/25 08:32:14;;;;;;;0.30;0.30;;;24.80;99.90;;;;;;5049355;28;20145;-77
2022/08/25 08:34:40;;;;;;;0.22;0.20;;;24.90;99.90;;;;;;5071004;28;20063;-80
2022/08/25 08:37:07;;;;;;;0.52;0.52;;;25.00;99.90;;;;;;5057289;28;20045;-80
2022/08/25 08:39:32;;;;;;;0.50;0.40;;;25.10;99.90;;;;;;5032285;28;20055;-78
2022/08/25 08:42:30;;;;;;;0.40;0.40;;;25.20;99.90;;;;;;5032209;28;20053;-79
2022/08/25 08:45:02;;;;;;;0.45;0.45;;;25.30;99.90;;;;;;5043906;28;20490;-78
2022/08/25 08:47:36;;;;;;;0.20;0.20;;;25.40;99.90;;;;;;5079499;28;20055;-80
2022/08/25 08:50:21;;;;;;;0.73;0.73;;;25.60;99.90;;;;;;5047456;28;20475;-77
2022/08/25 08:53:24;;;;;;;1.02;1.02;;;25.70;99.90;;;;;;5049602;28;20087;-79
2022/08/25 08:56:11;;;;;;;0.40;0.40;;;25.90;99.90;;;;;;5040876;28;20458;-79
2022/08/25 08:58:51;;;;;;;0.63;0.63;;;25.90;99.90;;;;;;5049005;28;20033;-80
2022/08/25 09:01:24;;;;;;;1.13;0.77;;;26.00;99.90;;;;;;5031032;28;20556;-79
2022/08/25 09:04:16;;;;;;;1.08;0.32;;;26.00;99.90;;;;;;5047358;28;20044;-78
2022/08/25 09:06:48;;;;;;;0.30;0.30;;;26.10;99.90;;;;;;4984924;28;20059;-78
2022/08/25 09:09:25;;;;;;;0.35;0.30;;;26.30;99.90;;;;;;5067331;28;20051;-79
2022/08/25 09:12:18;;;;;;;0.10;0.10;;;26.30;99.90;;;;;;5050532;28;20051;-78
2022/08/25 09:15:02;;;;;;;0.10;0.10;;;26.40;99.90;;;;;;5049505;28;20049;-80
2022/08/25 09:17:46;;;;;;;0.30;0.30;;;26.50;99.90;;;;;;5052494;28;20082;-78
2022/08/25 09:20:20;;;;;;;0.20;0.20;;;26.50;99.90;;;;;;5059841;28;20079;-79
2022/08/25 09:23:17;;;;;;;1.35;1.23;;;26.60;99.90;;;;;;5041887;28;20041;-80
2022/08/25 09:25:54;;;;;;;0.20;0.20;;;26.70;99.90;;;;;;5049798;28;20040;-80
2022/08/25 09:28:36;;;;;;;0.38;0.30;;;26.80;99.90;;;;;;5047373;28;20382;-78
2022/08/25 09:31:25;;;;;;;0.40;0.40;;;26.90;99.90;;;;;;5031759;28;20132;-79
2022/08/25 09:33:56;;;;;;;0.20;0.20;;;27.00;99.90;;;;;;5046554;28;20040;-80
2022/08/25 09:36:24;;;;;;;0.38;0.38;;;27.00;99.90;;;;;;5031478;28;20052;-80
2022/08/25 09:38:50;;;;;;;0.10;0.10;;;27.10;99.90;;;;;;5049532;28;20048;-79
2022/08/25 09:41:34;;;;;;;0.10;0.10;;;27.10;99.90;;;;;;5010935;28;20045;-79
2022/08/25 09:43:59;;;;;;;0.22;0.22;;;27.20;99.90;;;;;;5028502;28;20045;-79
2022/08/25 09:46:28;;;;;;;0.65;0.65;;;27.30;99.90;;;;;;5032438;28;20474;-80
2022/08/25 09:48:56;;;;;;;0.13;0.13;;;27.40;99.90;;;;;;5026930;28;20037;-78
2022/08/25 09:51:30;;;;;;;0.15;0.15;;;27.50;99.90;;;;;;5024609;28;20050;-82
2022/08/25 09:53:58;;;;;;;0.28;0.28;;;27.50;99.90;;;;;;5022570;28;20038;-80
2022/08/25 09:56:27;;;;;;;0.10;0.10;;;27.60;99.90;;;;;;5020927;28;20125;-78
2022/08/25 09:58:54;;;;;;;0.22;0.22;;;27.60;99.90;;;;;;5016705;28;20084;-79
2022/08/25 10:01:22;;;;;;;1.67;1.58;;;27.70;99.90;;;;;;5012856;28;20042;-79
2022/08/25 10:04:02;;;;;;;1.05;0.52;;;27.80;99.90;;;;;;5013448;28;20037;-79
2022/08/25 10:06:46;;;;;;;0.40;0.40;;;27.80;98.50;;;;;;5006010;28;20487;-78
2022/08/25 10:09:42;;;;;;;0.47;0.47;;;27.90;98.60;;;;;;4991794;28;20140;-78
2022/08/25 10:12:38;;;;;;;0.20;0.20;;;28.00;98.30;;;;;;5007215;28;20042;-78
2022/08/25 10:15:35;;;;;;;0.40;0.40;;;28.10;98.10;;;;;;5010037;28;20182;-79
2022/08/25 10:18:25;;;;;;;0.20;0.20;;;28.20;97.60;;;;;;5003206;28;20159;-77
2022/08/25 10:21:02;;;;;;;0.40;0.40;;;28.30;92.90;;;;;;4987345;28;20188;-79
2022/08/25 10:23:28;;;;;;;0.22;0.22;;;28.40;97.40;;;;;;5015057;28;20136;-81
2022/08/25 10:25:54;;;;;;;0.55;0.55;;;28.50;92.10;;;;;;5026281;28;20045;-79
2022/08/25 10:28:34;;;;;;;0.20;0.20;;;28.50;97.90;;;;;;5028672;28;20057;-78
2022/08/25 10:31:29;;;;;;;0.63;0.60;;;28.50;93.40;;;;;;5027860;28;20045;-78
2022/08/25 10:34:00;;;;;;;0.60;0.52;;;28.50;91.60;;;;;;5014876;28;20037;-80
2022/08/25 10:37:04;;;;;;;0.32;0.32;;;28.60;89.70;;;;;;5032269;28;20037;-81
2022/08/25 10:39:54;;;;;;;0.20;0.20;;;28.60;90.90;;;;;;5034756;28;20123;-78
2022/08/25 10:43:02;;;;;;;0.20;0.20;;;28.60;92.00;;;;;;5054661;28;20057;-78
2022/08/25 10:45:42;;;;;;;0.22;0.22;;;28.70;92.90;;;;;;4971603;28;20058;-79
2022/08/25 10:48:22;;;;;;;0.50;0.50;;;28.90;92.10;;;;;;5044020;28;20080;-78
2022/08/25 10:51:06;;;;;;;0.20;0.20;;;29.00;88.30;;;;;;5023307;28;20490;-78
2022/08/25 10:54:07;;;;;;;0.65;0.65;;;29.10;89.20;;;;;;5041148;28;20382;-78
2022/08/25 10:56:36;;;;;;;0.30;0.30;;;29.20;87.60;;;;;;5039759;28;20057;-78
2022/08/25 10:59:08;;;;;;;0.20;0.20;;;29.10;83.50;;;;;;5057651;28;20080;-79
2022/08/25 11:01:45;;;;;;;0.30;0.30;;;29.10;90.70;;;;;;5050974;28;20528;-78
2022/08/25 11:04:24;;;;;;;0.47;0.47;;;29.20;91.00;;;;;;5049194;28;20425;-79
2022/08/25 11:07:09;;;;;;;0.47;0.47;;;29.20;90.60;;;;;;5042205;28;20494;-80
2022/08/25 11:09:43;;;;;;;0.40;0.40;;;29.20;85.70;;;;;;5048700;28;20124;-79
2022/08/25 11:12:12;;;;;;;1.13;0.52;;;29.20;86.70;;;;;;5055143;28;20057;-80
2022/08/25 11:14:55;;;;;;;0.80;0.73;;;29.30;82.10;;;;;;5045986;28;20482;-79
2022/08/25 11:17:44;;;;;;;0.30;0.30;;;29.30;81.00;;;;;;5046771;28;20474;-79
2022/08/25 11:20:16;;;;;;;0.77;0.77;;;29.30;81.50;;;;;;5044369;28;20032;-78
2022/08/25 11:22:50;;;;;;;0.10;0.10;;;29.40;84.10;;;;;;5026517;28;20036;-78
2022/08/25 11:25:25;;;;;;;1.95;0.77;;;29.50;77.60;;;;;;5030504;28;20049;-81
2022/08/25 11:28:15;;;;;;;1.25;0.20;;;29.50;80.70;;;;;;5029321;28;20447;-77
2022/08/25 11:30:41;;;;;;;0.15;0.15;;;29.60;82.50;;;;;;5042827;28;20115;-80
2022/08/25 11:33:12;;;;;;;1.35;1.25;;;29.70;84.60;;;;;;5043251;28;20041;-81
2022/08/25 11:35:52;;;;;;;0.43;0.43;;;29.80;81.30;;;;;;5049048;28;20037;-79
2022/08/25 11:38:31;;;;;;;1.10;0.55;;;30.00;82.10;;;;;;5027315;28;20370;-81
2022/08/25 11:40:57;;;;;;;0.10;0.10;;;;;;;;;;5027364;28;20106;-78
2022/08/25 11:43:29;;;;;;;0.10;0.10;;;;;;;;;;5042606;28;20044;-77
2022/08/25 11:46:13;;;;;;;0.10;0.10;;;;;;;;;;5025585;28;20199;-81
2022/08/25 11:48:45;;;;;;;0.20;0.20;;;;;;;;;;5026214;28;20044;-77
2022/08/25 11:51:26;;;;;;;0.85;0.82;;;;;;;;;;5043605;28;20045;-80
2022/08/25 11:54:05;;;;;;;0.20;0.20;;;;;;;;;;5026732;28;20064;-81
2022/08/25 11:56:37;;;;;;;0.28;0.28;;;;;;;;;;5042340;28;20533;-76
2022/08/25 11:59:04;;;;;;;0.47;0.35;;;;;;;;;;5042987;28;20397;-81
2022/08/25 12:01:39;;;;;;;0.73;0.73;;;;;;;;;;5045122;28;20055;-78
2022/08/25 12:04:14;;;;;;;7.40;0.82;;;;;;;;;;5040401;28;20055;-78
2022/08/25 12:06:59;;;;;;;0.38;0.25;;;;;;;;;;5054496;28;20051;-80
2022/08/25 12:09:25;;;;;;;0.35;0.35;;;;;;;;;;5049270;28;20532;-79
2022/08/25 12:11:53;;;;;;;0.80;0.80;;;;;;;;;;5031427;28;20041;-78
2022/08/25 12:14:23;;;;;;;0.45;0.40;;;;;;;;;;5029041;28;20040;-76
2022/08/25 12:16:55;;;;;;;0.20;0.20;;;;;;;;;;5044273;28;20427;-77
2022/08/25 12:19:36;;;;;;;0.10;0.10;;;;;;;;;;5030946;28;20051;-81
2022/08/25 12:22:02;;;;;;;0.03;0.03;;;;;;;;;;5044472;28;20560;-76
2022/08/25 12:24:46;;;;;;;0.65;0.65;;;;;;;;;;5026989;28;20044;-79
2022/08/25 12:27:12;;;;;;;0.75;0.75;;;;;;;;;;5048795;28;20084;-80
2022/08/25 12:29:40;;;;;;;0.40;0.40;;;;;;;;;;5058387;28;20040;-81
2022/08/25 12:32:13;;;;;;;0.40;0.40;;;;;;;;;;5043372;28;20049;-80
2022/08/25 12:34:48;;;;;;;0.20;0.20;;;;;;;;;;5053219;28;20048;-80
2022/08/25 12:37:22;;;;;;;0.28;0.28;;;;;;;;;;5044141;28;20037;-80
2022/08/25 12:39:48;;;;;;;0.40;0.40;;;;;;;;;;5057362;28;20080;-78
2022/08/25 12:42:21;;;;;;;0.10;0.10;;;;;;;;;;5038039;28;20090;-78
2022/08/25 12:45:07;;;;;;;0.25;0.25;;;;;;;;;;5034213;28;20040;-78
2022/08/25 12:47:33;;;;;;;0.82;0.82;;;;;;;;;;5024262;28;20130;-81
2022/08/25 12:50:18;;;;;;;0.20;0.20;;;;;;;;;;5029824;28;20111;-77
2022/08/25 12:52:45;;;;;;;0.20;0.20;;;;;;;;;;5041204;28;20044;-76
2022/08/25 12:55:12;;;;;;;0.43;0.43;;;;;;;;;;5049563;28;20049;-78
2022/08/25 12:57:44;;;;;;;0.43;0.43;;;;;;;;;;5045017;28;20049;-79
2022/08/25 13:00:22;;;;;;;0.10;0.10;;;;;;;;;;5047227;28;20095;-80
2022/08/25 13:02:48;;;;;;;0.17;0.17;;;;;;;;;;5056224;28;20044;-77
2022/08/25 13:05:32;;;;;;;0.20;0.20;;;;;;;;;;5048263;28;20410;-81
2022/08/25 13:08:18;;;;;;;0.15;0.15;;;;;;;;;;5048909;28;20483;-78
2022/08/25 13:11:03;;;;;;;0.52;0.52;;;;;;;;;;5049680;28;20057;-80
2022/08/25 13:13:56;;;;;;;0.13;0.13;;;;;;;;;;5056408;28;20486;-82
2022/08/25 13:16:27;;;;;;;0.80;0.45;;;;;;;;;;5042837;28;20466;-78
2022/08/25 13:18:57;;;;;;;0.10;0.10;;;;;;;;;;5048736;28;20080;-80
2022/08/25 13:21:37;;;;;;;0.20;0.20;;;;;;;;;;5054618;28;20078;-79
2022/08/25 13:24:11;;;;;;;0.17;0.17;;;;;;;;;;5046324;28;20052;-82
2022/08/25 13:26:39;;;;;;;0.10;0.10;;;;;;;;;;5023256;28;20052;-77
2022/08/25 13:29:09;;;;;;;0.70;0.50;;;;;;;;;;5051574;28;20059;-79
2022/08/25 13:31:37;;;;;;;0.30;0.30;;;;;;;;;;5046455;28;20040;-77
2022/08/25 13:34:08;;;;;;;0.10;0.10;;;;;;;;;;5048205;28;20504;-82
2022/08/25 13:39:28;;;;;;;0.20;0.20;;;;;;;;;;5049504;28;20049;-78